Time,TemperatureF,DewpointF,PressureIn,WindDirection,WindDirectionDegrees,WindSpeedMPH,WindSpeedGustMPH,Humidity,HourlyPrecipIn,Conditions,Clouds,dailyrainin,SoftwareType,DateUTC
2013-02-16 00:00:00,42.3,33.9,30.17,NE,45,3.0,11.0,72,0.00,,,0.00,VWS V14.01,2013-02-16 05:00:00,
2013-02-16 00:30:00,41.2,33.2,30.16,NE,45,1.0,7.0,73,0.00,,,0.00,VWS V14.01,2013-02-16 05:30:00,
2013-02-16 01:00:00,40.7,33.4,30.16,NE,45,1.0,11.0,75,0.00,,,0.00,VWS V14.01,2013-02-16 06:00:00,
2013-02-16 01:30:00,40.5,32.9,30.16,NNE,22,1.0,6.0,74,0.00,,,0.00,VWS V14.01,2013-02-16 06:30:00,
2013-02-16 02:00:00,39.8,32.2,30.16,NE,45,1.0,6.0,74,0.00,,,0.00,VWS V14.01,2013-02-16 07:00:00,
2013-02-16 02:30:00,39.1,32.2,30.16,NE,45,0.0,5.0,76,0.00,,,0.00,VWS V14.01,2013-02-16 07:30:00,
2013-02-16 03:00:00,39.3,32.7,30.16,NE,45,0.0,1.0,77,0.00,,,0.00,VWS V14.01,2013-02-16 08:00:00,
2013-02-16 03:30:00,39.7,32.4,30.15,NNE,22,1.0,7.0,75,0.00,,,0.00,VWS V14.01,2013-02-16 08:30:00,
2013-02-16 04:00:00,39.4,32.2,30.14,ENE,68,2.0,11.0,75,0.00,,,0.00,VWS V14.01,2013-02-16 09:00:00,
2013-02-16 04:30:00,39.1,32.5,30.14,ENE,68,0.0,10.0,77,0.00,,,0.00,VWS V14.01,2013-02-16 09:30:00,
2013-02-16 05:00:00,38.9,33.0,30.14,ENE,68,0.0,2.0,79,0.00,,,0.00,VWS V14.01,2013-02-16 10:00:00,
2013-02-16 05:30:00,38.4,32.8,30.13,ENE,68,0.0,4.0,80,0.00,,,0.00,VWS V14.01,2013-02-16 10:30:00,
2013-02-16 06:00:00,38.2,32.0,30.13,ENE,68,0.0,5.0,78,0.00,,,0.00,VWS V14.01,2013-02-16 11:00:00,
2013-02-16 06:30:00,38.0,31.8,30.14,NNE,22,1.0,6.0,78,0.00,,,0.00,VWS V14.01,2013-02-16 11:30:00,
2013-02-16 07:00:00,34.8,31.0,30.15,ENE,68,1.0,7.0,86,0.02,,,0.02,VWS V14.01,2013-02-16 12:00:00,
2013-02-16 07:30:00,33.9,31.0,30.15,ENE,68,0.0,0.0,89,0.02,,,0.02,VWS V14.01,2013-02-16 12:30:00,
2013-02-16 08:00:00,33.4,31.1,30.15,ENE,68,0.0,0.0,91,0.03,,,0.03,VWS V14.01,2013-02-16 13:00:00,
2013-02-16 08:30:00,33.4,31.3,30.15,ENE,68,0.0,0.0,92,0.02,,,0.04,VWS V14.01,2013-02-16 13:30:00,
2013-02-16 09:00:00,33.6,31.8,30.15,ENE,68,0.0,0.0,93,0.04,,,0.06,VWS V14.01,2013-02-16 14:00:00,
2013-02-16 09:30:00,34.5,32.7,30.12,NNE,22,0.0,4.0,93,0.04,,,0.07,VWS V14.01,2013-02-16 14:30:00,
2013-02-16 10:00:00,34.4,32.9,30.12,NE,45,1.0,6.0,94,0.05,,,0.09,VWS V14.01,2013-02-16 15:00:00,
2013-02-16 10:30:00,34.6,33.0,30.12,NE,45,0.0,4.0,94,0.03,,,0.09,VWS V14.01,2013-02-16 15:30:00,
2013-02-16 11:00:00,34.2,32.7,30.12,NE,45,1.0,7.0,94,0.03,,,0.10,VWS V14.01,2013-02-16 16:00:00,
2013-02-16 11:30:00,34.3,32.8,30.11,NE,45,1.0,6.0,94,0.01,,,0.10,VWS V14.01,2013-02-16 16:30:00,
2013-02-16 12:00:00,33.6,32.1,30.10,NNE,22,1.0,10.0,94,0.02,,,0.11,VWS V14.01,2013-02-16 17:00:00,
2013-02-16 12:30:00,33.6,32.1,30.09,NNE,22,1.0,7.0,94,0.02,,,0.12,VWS V14.01,2013-02-16 17:30:00,
2013-02-16 13:00:00,33.3,31.8,30.08,NNE,22,1.0,6.0,94,0.03,,,0.13,VWS V14.01,2013-02-16 18:00:00,
2013-02-16 13:30:00,33.2,31.7,30.06,NE,45,0.0,5.0,94,0.03,,,0.14,VWS V14.01,2013-02-16 18:30:00,
2013-02-16 14:00:00,33.4,32.1,30.07,NE,45,0.0,2.0,95,0.04,,,0.16,VWS V14.01,2013-02-16 19:00:00,
2013-02-16 14:30:00,32.9,31.6,30.06,NE,45,0.0,5.0,95,0.04,,,0.17,VWS V14.01,2013-02-16 19:30:00,
2013-02-16 15:00:00,32.6,31.3,30.04,NE,45,1.0,5.0,95,0.04,,,0.18,VWS V14.01,2013-02-16 20:00:00,
2013-02-16 15:30:00,32.8,31.5,30.03,NE,45,0.0,3.0,95,0.02,,,0.18,VWS V14.01,2013-02-16 20:30:00,
2013-02-16 16:00:00,33.1,31.8,30.03,NE,45,0.0,2.0,95,0.02,,,0.19,VWS V14.01,2013-02-16 21:00:00,
2013-02-16 16:30:00,32.5,31.2,30.03,NE,45,0.0,5.0,95,0.01,,,0.19,VWS V14.01,2013-02-16 21:30:00,
2013-02-16 17:00:00,32.6,31.3,30.04,North,0,0.0,9.0,95,0.02,,,0.20,VWS V14.01,2013-02-16 22:00:00,
2013-02-16 17:30:00,32.3,31.0,30.04,NE,45,1.0,6.0,95,0.01,,,0.20,VWS V14.01,2013-02-16 22:30:00,
2013-02-16 18:00:00,32.1,30.6,30.05,NE,45,0.0,0.0,94,0.01,,,0.20,VWS V14.01,2013-02-16 23:00:00,
2013-02-16 18:30:00,31.4,29.9,30.06,NE,45,0.0,0.0,94,0.00,,,0.20,VWS V14.01,2013-02-16 23:30:00,
2013-02-16 19:00:00,30.4,28.9,30.07,NE,45,0.0,0.0,94,0.00,,,0.20,VWS V14.01,2013-02-17 00:00:00,
2013-02-16 19:30:00,29.5,28.0,30.08,North,0,0.0,1.0,94,0.00,,,0.20,VWS V14.01,2013-02-17 00:30:00,
2013-02-16 20:00:00,28.8,26.2,30.08,NNE,22,0.0,6.0,90,0.00,,,0.20,VWS V14.01,2013-02-17 01:00:00,
2013-02-16 20:30:00,30.3,23.3,30.09,NNE,22,1.0,11.0,75,0.00,,,0.20,VWS V14.01,2013-02-17 01:30:00,
2013-02-16 21:00:00,31.0,22.0,30.10,NNE,22,2.0,13.0,69,0.00,,,0.20,VWS V14.01,2013-02-17 02:00:00,
2013-02-16 21:30:00,30.6,21.3,30.12,NNE,22,0.0,7.0,68,0.00,,,0.20,VWS V14.01,2013-02-17 02:30:00,
2013-02-16 22:00:00,29.9,21.0,30.13,NNE,22,0.0,5.0,69,0.00,,,0.20,VWS V14.01,2013-02-17 03:00:00,
2013-02-16 22:30:00,29.1,19.9,30.13,NNE,22,0.0,6.0,68,0.00,,,0.20,VWS V14.01,2013-02-17 03:30:00,
2013-02-16 23:00:00,28.3,19.5,30.14,ENE,68,0.0,3.0,69,0.00,,,0.20,VWS V14.01,2013-02-17 04:00:00,
2013-02-16 23:30:00,27.6,19.8,30.14,ENE,68,0.0,0.0,72,0.00,,,0.20,VWS V14.01,2013-02-17 04:30:00,